createdAt,value
2022-08-11T00:01:24.230Z,53.00
2022-08-11T00:04:11.466Z,52.70
2022-08-11T00:07:03.297Z,53.00
2022-08-11T00:09:50.296Z,53.00
2022-08-11T00:12:37.301Z,53.20
2022-08-11T00:15:24.384Z,52.70
2022-08-11T00:18:15.191Z,53.00
2022-08-11T00:21:01.967Z,53.50
2022-08-11T00:23:55.423Z,53.40
2022-08-11T00:26:48.139Z,53.60
2022-08-11T00:29:35.776Z,53.70
2022-08-11T00:32:39.655Z,53.50
2022-08-11T00:35:54.047Z,53.20
2022-08-11T00:38:41.780Z,53.20
2022-08-11T00:41:35.454Z,53.40
2022-08-11T00:44:34.263Z,53.60
2022-08-11T00:47:29.300Z,53.60
2022-08-11T00:50:25.309Z,53.80
2022-08-11T00:53:37.691Z,53.70
2022-08-11T00:56:51.274Z,53.30
2022-08-11T01:00:03.639Z,53.60
2022-08-11T01:03:19.590Z,53.70
2022-08-11T01:06:22.833Z,53.20
2022-08-11T01:09:56.059Z,53.50
2022-08-11T01:12:57.675Z,53.40
2022-08-11T01:16:14.603Z,53.30
2022-08-11T01:19:34.737Z,53.40
2022-08-11T01:23:21.117Z,53.20
2022-08-11T01:27:01.466Z,53.20
2022-08-11T01:30:18.791Z,53.20
2022-08-11T01:33:59.566Z,53.50
2022-08-11T01:37:41.186Z,53.40
2022-08-11T01:40:53.478Z,53.70
2022-08-11T01:44:31.515Z,53.60
2022-08-11T01:47:53.015Z,52.90
2022-08-11T01:50:55.111Z,53.60
2022-08-11T01:53:53.916Z,53.60
2022-08-11T01:56:50.698Z,53.40
2022-08-11T01:59:48.742Z,53.80
2022-08-11T02:02:47.642Z,54.00
2022-08-11T02:06:01.486Z,53.80
2022-08-11T02:08:59.980Z,53.80
2022-08-11T02:11:48.547Z,53.90
2022-08-11T02:15:04.790Z,54.20
2022-08-11T02:18:00.199Z,53.90
2022-08-11T02:21:08.467Z,54.20
2022-08-11T02:24:06.579Z,54.10
2022-08-11T02:27:06.192Z,54.00
2022-08-11T02:30:05.174Z,54.30
2022-08-11T02:33:16.845Z,54.30
2022-08-11T02:36:09.030Z,54.40
2022-08-11T02:39:04.468Z,54.80
2022-08-11T02:42:35.143Z,54.70
2022-08-11T02:45:48.604Z,54.50
2022-08-11T02:49:02.780Z,54.60
2022-08-11T02:52:06.166Z,54.60
2022-08-11T02:55:04.532Z,54.50
2022-08-11T02:57:58.036Z,54.70
2022-08-11T03:00:51.933Z,54.80
2022-08-11T03:03:48.566Z,54.80
2022-08-11T03:06:40.217Z,55.00
2022-08-11T03:09:43.142Z,55.00
2022-08-11T03:12:57.216Z,54.90
2022-08-11T03:16:04.449Z,55.00
2022-08-11T03:19:01.067Z,55.10
2022-08-11T03:22:02.845Z,55.30
2022-08-11T03:24:58.786Z,56.00
2022-08-11T03:27:55.117Z,55.30
2022-08-11T03:30:49.690Z,55.50
2022-08-11T03:34:04.138Z,55.60
2022-08-11T03:37:46.828Z,55.50
2022-08-11T03:42:02.059Z,55.70
2022-08-11T03:44:39.111Z,55.90
2022-08-11T03:47:55.052Z,56.00
2022-08-11T03:50:59.398Z,56.40
2022-08-11T03:54:16.103Z,56.90
2022-08-11T03:57:44.348Z,57.10
2022-08-11T04:01:08.110Z,57.30
2022-08-11T04:04:21.075Z,57.10
2022-08-11T04:07:47.039Z,57.10
2022-08-11T04:11:24.232Z,57.10
2022-08-11T04:14:52.737Z,57.20
2022-08-11T04:18:19.451Z,57.30
2022-08-11T04:22:03.241Z,57.20
2022-08-11T04:25:24.062Z,57.10
2022-08-11T04:28:50.822Z,57.30
2022-08-11T04:31:48.839Z,57.20
2022-08-11T04:35:16.107Z,57.30
2022-08-11T04:38:41.633Z,57.70
2022-08-11T04:42:31.039Z,57.60
2022-08-11T04:45:48.230Z,57.70
2022-08-11T04:49:24.249Z,57.90
2022-08-11T04:52:55.685Z,57.70
2022-08-11T04:56:35.807Z,58.00
2022-08-11T05:00:06.126Z,58.10
2022-08-11T05:03:32.441Z,58.10
2022-08-11T05:06:40.792Z,58.30
2022-08-11T05:09:45.844Z,58.40
2022-08-11T05:12:44.377Z,58.40
2022-08-11T05:16:02.727Z,58.40
2022-08-11T05:19:09.326Z,58.50
2022-08-11T05:22:17.309Z,58.70
2022-08-11T05:26:43.863Z,58.60
2022-08-11T05:28:53.698Z,58.70
2022-08-11T05:32:04.624Z,59.10
2022-08-11T05:34:54.622Z,58.80
2022-08-11T05:38:02.304Z,59.30
2022-08-11T05:41:13.267Z,58.90
2022-08-11T05:44:19.737Z,58.80
2022-08-11T05:47:25.712Z,58.90
2022-08-11T05:50:33.161Z,58.90
2022-08-11T05:53:45.847Z,58.80
2022-08-11T05:56:36.807Z,59.00
2022-08-11T05:59:25.685Z,58.90
2022-08-11T06:02:12.846Z,59.10
2022-08-11T06:05:01.075Z,59.00
2022-08-11T06:07:50.268Z,58.90
2022-08-11T06:10:39.107Z,58.90
2022-08-11T06:13:28.042Z,58.60
2022-08-11T06:16:16.321Z,58.70
2022-08-11T06:19:04.216Z,58.70
2022-08-11T06:21:53.185Z,58.80
2022-08-11T06:24:42.185Z,58.50
2022-08-11T06:27:31.365Z,58.40
2022-08-11T06:30:23.456Z,58.80
2022-08-11T06:33:13.053Z,58.90
2022-08-11T06:36:07.549Z,58.80
2022-08-11T06:39:03.470Z,58.40
2022-08-11T06:41:54.218Z,58.90
2022-08-11T06:44:45.002Z,58.20
2022-08-11T06:47:33.874Z,58.20
2022-08-11T06:50:40.307Z,57.60
2022-08-11T06:53:27.317Z,57.60
2022-08-11T06:56:33.277Z,57.10
2022-08-11T06:59:49.047Z,57.10
2022-08-11T07:02:45.378Z,57.00
2022-08-11T07:05:43.978Z,57.00
2022-08-11T07:09:22.919Z,56.70
2022-08-11T07:12:56.146Z,56.70
2022-08-11T07:16:12.563Z,57.10
2022-08-11T07:19:09.784Z,56.70
2022-08-11T07:22:27.158Z,56.90
2022-08-11T07:25:34.388Z,56.50
2022-08-11T07:28:43.430Z,56.30
2022-08-11T07:31:41.993Z,56.70
2022-08-11T07:34:36.565Z,56.60
2022-08-11T07:37:25.446Z,56.50
2022-08-11T07:40:13.057Z,56.30
2022-08-11T07:43:01.498Z,55.90
2022-08-11T07:46:06.402Z,55.60
2022-08-11T07:49:11.626Z,55.70
2022-08-11T07:52:17.396Z,55.40
2022-08-11T07:55:08.464Z,55.00
2022-08-11T07:58:19.623Z,55.00
2022-08-11T08:01:24.564Z,54.30
2022-08-11T08:04:31.075Z,53.70
2022-08-11T08:07:40.197Z,53.80
2022-08-11T08:10:44.518Z,52.50
2022-08-11T08:13:51.940Z,51.90
2022-08-11T08:16:56.376Z,51.40
2022-08-11T08:19:47.935Z,51.00
2022-08-11T08:22:38.656Z,49.80
2022-08-11T08:25:27.574Z,49.40
2022-08-11T08:28:18.510Z,49.40
2022-08-11T08:31:04.261Z,49.30
2022-08-11T08:33:52.560Z,48.40
2022-08-11T08:36:43.603Z,48.10
2022-08-11T08:39:33.797Z,47.10
2022-08-11T08:42:25.591Z,46.30
2022-08-11T08:45:15.893Z,45.50
2022-08-11T08:48:05.977Z,45.30
2022-08-11T08:51:23.798Z,44.80
2022-08-11T08:54:15.582Z,44.40
2022-08-11T08:57:05.169Z,43.40
2022-08-11T08:59:53.114Z,43.20
2022-08-11T09:02:41.323Z,42.70
2022-08-11T09:05:28.307Z,42.80
2022-08-11T09:08:15.739Z,42.20
2022-08-11T09:11:20.309Z,41.90
2022-08-11T09:14:14.352Z,41.90
2022-08-11T09:17:02.045Z,41.10
2022-08-11T09:19:56.820Z,40.20
2022-08-11T09:23:54.586Z,40.40
2022-08-11T09:26:30.418Z,40.40
2022-08-11T09:29:19.086Z,40.10
2022-08-11T09:32:07.241Z,40.10
2022-08-11T09:34:55.097Z,39.30
2022-08-11T09:37:59.978Z,39.10
2022-08-11T09:40:56.137Z,38.90
2022-08-11T09:44:04.435Z,38.60
2022-08-11T09:46:53.973Z,38.70
2022-08-11T09:49:45.344Z,37.50
2022-08-11T09:52:36.929Z,37.10
2022-08-11T09:55:23.954Z,37.70
2022-08-11T09:58:41.866Z,37.90
2022-08-11T10:01:29.619Z,37.40
2022-08-11T10:04:20.482Z,38.50
2022-08-11T10:07:10.483Z,38.00
2022-08-11T10:10:03.062Z,37.70
2022-08-11T10:12:52.014Z,37.50
2022-08-11T10:15:59.619Z,37.50
2022-08-11T10:18:53.357Z,36.50
2022-08-11T10:21:44.242Z,37.00
2022-08-11T10:24:48.905Z,36.90
2022-08-11T10:28:16.867Z,37.60
2022-08-11T10:31:04.211Z,36.60
2022-08-11T10:34:04.355Z,36.40
2022-08-11T10:36:52.693Z,36.40
2022-08-11T10:39:41.563Z,35.80
2022-08-11T10:42:57.916Z,35.90
2022-08-11T10:46:05.154Z,35.30
2022-08-11T10:48:52.129Z,34.60
2022-08-11T10:51:58.669Z,34.40
2022-08-11T10:55:08.038Z,33.60
2022-08-11T10:58:12.079Z,33.50
2022-08-11T11:01:00.655Z,33.20
2022-08-11T11:03:48.590Z,33.20
2022-08-11T11:06:44.808Z,32.70
2022-08-11T11:09:33.885Z,33.20
2022-08-11T11:12:45.294Z,33.70
2022-08-11T11:15:53.318Z,32.60
2022-08-11T11:18:40.242Z,33.20
2022-08-11T11:21:28.057Z,33.20
2022-08-11T11:24:27.273Z,33.70
2022-08-11T11:27:27.969Z,33.40
2022-08-11T11:30:16.398Z,32.70
2022-08-11T11:33:10.326Z,32.30
2022-08-11T11:36:11.826Z,32.10
2022-08-11T11:38:59.013Z,32.50
2022-08-11T11:41:46.305Z,32.90
2022-08-11T11:44:35.365Z,32.90
2022-08-11T11:47:22.972Z,32.90
2022-08-11T11:50:10.418Z,32.20
2022-08-11T11:52:59.509Z,31.80
2022-08-11T11:55:47.653Z,31.10
2022-08-11T11:58:51.520Z,30.70
2022-08-11T12:01:39.615Z,30.00
2022-08-11T12:04:27.946Z,30.10
2022-08-11T12:07:32.645Z,29.70
2022-08-11T12:10:19.823Z,29.30
2022-08-11T12:13:24.585Z,28.70
2022-08-11T12:16:33.384Z,28.40
2022-08-11T12:19:25.564Z,28.60
2022-08-11T12:22:29.797Z,28.20
2022-08-11T12:25:35.039Z,27.90
2022-08-11T12:28:22.929Z,28.10
2022-08-11T12:31:16.069Z,28.20
2022-08-11T12:34:04.324Z,27.40
2022-08-11T12:36:58.512Z,27.20
2022-08-11T12:40:11.011Z,27.40
2022-08-11T12:43:38.067Z,26.90
2022-08-11T12:46:31.878Z,26.40
2022-08-11T12:49:43.363Z,26.40
2022-08-11T12:52:38.217Z,26.10
2022-08-11T12:55:40.095Z,25.30
2022-08-11T12:58:28.272Z,26.00
2022-08-11T13:01:32.768Z,25.70
2022-08-11T13:04:37.180Z,25.60
2022-08-11T13:07:25.702Z,25.90
2022-08-11T13:10:37.924Z,25.70
2022-08-11T13:13:52.852Z,25.30
2022-08-11T13:16:53.341Z,25.10
2022-08-11T13:19:45.168Z,24.50
2022-08-11T13:22:36.425Z,24.60
2022-08-11T13:25:27.536Z,24.70
2022-08-11T13:28:14.445Z,24.70
2022-08-11T13:31:14.897Z,24.70
2022-08-11T13:36:53.081Z,24.90
2022-08-11T13:39:44.220Z,24.70
2022-08-11T13:42:33.315Z,24.90
2022-08-11T13:45:23.334Z,24.50
2022-08-11T13:48:13.256Z,24.70
2022-08-11T13:51:17.611Z,23.80
2022-08-11T13:54:07.001Z,24.20
2022-08-11T13:56:56.876Z,23.80
2022-08-11T13:59:52.492Z,23.80
2022-08-11T14:02:43.213Z,24.70
2022-08-11T14:05:37.701Z,24.20
2022-08-11T14:08:37.286Z,24.30
2022-08-11T14:12:21.480Z,24.70
2022-08-11T14:14:58.559Z,24.30
2022-08-11T14:17:48.753Z,23.50
2022-08-11T14:20:57.513Z,24.20
2022-08-11T14:23:47.175Z,24.10
2022-08-11T14:26:38.945Z,24.40
2022-08-11T14:29:28.594Z,25.40
2022-08-11T14:32:17.412Z,25.20
2022-08-11T14:35:04.493Z,25.40
2022-08-11T14:37:51.783Z,26.50
2022-08-11T14:40:55.699Z,27.10
2022-08-11T14:44:13.100Z,27.80
2022-08-11T14:47:24.046Z,28.80
2022-08-11T14:50:18.022Z,29.60
2022-08-11T14:53:07.455Z,30.00
2022-08-11T14:56:13.402Z,31.10
2022-08-11T14:59:02.121Z,31.10
2022-08-11T15:02:07.358Z,31.00
2022-08-11T15:04:56.175Z,30.50
2022-08-11T15:07:44.578Z,30.90
2022-08-11T15:10:32.099Z,30.50
2022-08-11T15:13:19.577Z,31.20
2022-08-11T15:16:24.085Z,31.20
2022-08-11T15:19:12.082Z,31.80
2022-08-11T15:22:15.724Z,31.20
2022-08-11T15:25:04.110Z,31.50
2022-08-11T15:28:11.837Z,31.40
2022-08-11T15:31:18.082Z,31.50
2022-08-11T15:34:25.059Z,32.20
2022-08-11T15:37:30.952Z,32.00
2022-08-11T15:40:41.243Z,32.10
2022-08-11T15:43:56.186Z,32.30
2022-08-11T15:46:46.630Z,32.50
2022-08-11T15:50:10.981Z,32.30
2022-08-11T15:52:53.640Z,32.50
2022-08-11T15:55:43.520Z,32.50
2022-08-11T15:59:40.742Z,32.80
2022-08-11T16:02:17.039Z,32.90
2022-08-11T16:05:09.356Z,33.00
2022-08-11T16:07:57.516Z,32.70
2022-08-11T16:10:47.255Z,32.30
2022-08-11T16:13:59.740Z,32.40
2022-08-11T16:16:48.050Z,33.20
2022-08-11T16:19:37.935Z,34.20
2022-08-11T16:22:34.369Z,33.20
2022-08-11T16:27:07.289Z,33.10
2022-08-11T16:28:35.416Z,32.90
2022-08-11T16:31:23.200Z,33.40
2022-08-11T16:34:31.582Z,34.20
2022-08-11T16:37:36.083Z,33.50
2022-08-11T16:40:23.404Z,33.20
2022-08-11T16:43:31.182Z,33.40
2022-08-11T16:46:35.095Z,33.70
2022-08-11T16:49:29.419Z,33.80
2022-08-11T16:52:20.583Z,33.70
2022-08-11T16:55:09.697Z,34.90
2022-08-11T16:58:14.785Z,34.10
2022-08-11T17:01:03.215Z,34.60
2022-08-11T17:04:16.340Z,33.90
2022-08-11T17:07:40.356Z,34.50
2022-08-11T17:10:51.893Z,34.20
2022-08-11T17:13:44.578Z,35.60
2022-08-11T17:16:35.448Z,35.80
2022-08-11T17:20:42.363Z,35.70
2022-08-11T17:22:53.166Z,35.10
2022-08-11T17:26:03.480Z,35.10
2022-08-11T17:28:53.732Z,37.60
2022-08-11T17:31:58.685Z,37.00
2022-08-11T17:35:06.860Z,35.50
2022-08-11T17:37:55.126Z,37.00
2022-08-11T17:41:04.044Z,37.70
2022-08-11T17:44:09.590Z,36.80
2022-08-11T17:47:13.752Z,36.90
2022-08-11T17:50:16.615Z,36.00
2022-08-11T17:53:22.111Z,36.90
2022-08-11T17:56:27.502Z,36.60
2022-08-11T17:59:33.933Z,37.80
2022-08-11T18:02:42.282Z,37.20
2022-08-11T18:05:33.798Z,38.00
2022-08-11T18:08:39.347Z,37.90
2022-08-11T18:12:06.679Z,37.90
2022-08-11T18:15:13.782Z,38.80
2022-08-11T18:18:17.637Z,39.60
2022-08-11T18:21:25.282Z,39.50
2022-08-11T18:24:32.074Z,39.30
2022-08-11T18:27:39.083Z,40.20
2022-08-11T18:30:43.904Z,40.80
2022-08-11T18:34:06.796Z,41.00
2022-08-11T18:37:24.798Z,40.60
2022-08-11T18:40:38.185Z,41.10
2022-08-11T18:43:46.096Z,41.70
2022-08-11T18:46:55.063Z,41.50
2022-08-11T18:50:05.196Z,41.00
2022-08-11T18:53:12.639Z,41.60
2022-08-11T18:56:18.924Z,41.80
2022-08-11T18:59:24.945Z,41.60
2022-08-11T19:02:31.279Z,41.80
2022-08-11T19:06:32.010Z,41.60
2022-08-11T19:09:10.498Z,42.00
2022-08-11T19:12:16.994Z,41.60
2022-08-11T19:15:22.484Z,42.10
2022-08-11T19:18:28.875Z,42.10
2022-08-11T19:21:35.211Z,42.40
2022-08-11T19:24:43.914Z,42.50
2022-08-11T19:27:48.885Z,43.20
2022-08-11T19:30:54.255Z,43.10
2022-08-11T19:34:02.537Z,43.20
2022-08-11T19:37:15.044Z,43.00
2022-08-11T19:40:24.953Z,43.20
2022-08-11T19:43:30.277Z,43.60
2022-08-11T19:46:36.543Z,43.50
2022-08-11T19:49:41.618Z,43.40
2022-08-11T19:52:47.399Z,43.60
2022-08-11T19:55:53.237Z,43.70
2022-08-11T19:58:58.756Z,43.80
2022-08-11T20:02:13.248Z,44.20
2022-08-11T20:05:19.292Z,44.00
2022-08-11T20:08:25.005Z,44.30
2022-08-11T20:11:33.651Z,44.50
2022-08-11T20:14:39.250Z,44.60
2022-08-11T20:17:47.484Z,44.70
2022-08-11T20:20:52.617Z,44.80
2022-08-11T20:23:59.647Z,44.70
2022-08-11T20:27:06.489Z,44.70
2022-08-11T20:30:24.357Z,44.80
2022-08-11T20:33:28.752Z,45.40
2022-08-11T20:36:34.463Z,46.10
2022-08-11T20:39:40.524Z,46.70
2022-08-11T20:42:47.803Z,47.10
2022-08-11T20:45:56.881Z,47.40
2022-08-11T20:49:03.119Z,47.40
2022-08-11T20:52:10.129Z,47.60
2022-08-11T20:55:20.965Z,47.50
2022-08-11T20:58:54.825Z,47.30
2022-08-11T21:01:58.458Z,47.60
2022-08-11T21:05:07.609Z,47.50
2022-08-11T21:08:19.147Z,47.70
2022-08-11T21:11:31.945Z,47.70
2022-08-11T21:14:40.219Z,47.70
2022-08-11T21:18:00.703Z,48.10
2022-08-11T21:21:16.477Z,48.30
2022-08-11T21:24:22.818Z,49.00
2022-08-11T21:27:31.472Z,48.80
2022-08-11T21:30:37.450Z,48.80
2022-08-11T21:33:42.052Z,48.10
2022-08-11T21:36:47.454Z,48.70
2022-08-11T21:39:53.598Z,48.80
2022-08-11T21:43:01.839Z,48.90
2022-08-11T21:46:08.999Z,48.80
2022-08-11T21:49:15.872Z,49.40
2022-08-11T21:52:21.813Z,48.90
2022-08-11T21:55:27.076Z,48.80
2022-08-11T21:58:32.414Z,48.80
2022-08-11T22:01:39.135Z,48.90
2022-08-11T22:04:44.104Z,49.10
2022-08-11T22:07:49.923Z,48.90
2022-08-11T22:10:53.987Z,49.20
2022-08-11T22:14:05.750Z,49.20
2022-08-11T22:17:13.227Z,49.50
2022-08-11T22:20:19.067Z,49.50
2022-08-11T22:23:24.501Z,49.50
2022-08-11T22:26:35.632Z,49.50
2022-08-11T22:29:51.165Z,49.80
2022-08-11T22:32:57.694Z,49.90
2022-08-11T22:36:03.546Z,50.00
2022-08-11T22:39:09.397Z,50.20
2022-08-11T22:42:13.314Z,50.10
2022-08-11T22:45:17.631Z,50.10
2022-08-11T22:48:24.197Z,50.50
2022-08-11T22:51:28.710Z,50.30
2022-08-11T22:54:33.582Z,50.70
2022-08-11T22:57:38.819Z,50.60
2022-08-11T23:00:43.156Z,50.70
2022-08-11T23:03:51.369Z,50.70
2022-08-11T23:06:57.290Z,50.80
2022-08-11T23:10:01.360Z,50.70
2022-08-11T23:13:05.424Z,51.10
2022-08-11T23:16:10.988Z,50.90
2022-08-11T23:20:07.220Z,51.30
2022-08-11T23:22:49.835Z,51.10
2022-08-11T23:25:55.687Z,51.20
2022-08-11T23:29:05.051Z,51.20
2022-08-11T23:32:11.350Z,50.90
2022-08-11T23:35:38.602Z,51.00
2022-08-11T23:38:43.217Z,51.20
2022-08-11T23:41:47.636Z,51.10
2022-08-11T23:44:51.856Z,51.30
2022-08-11T23:47:57.767Z,50.80
2022-08-11T23:51:04.071Z,50.90
2022-08-11T23:54:09.302Z,50.90
2022-08-11T23:57:13.902Z,50.90
